Time;durP1;ratioP1;P1;durP2;ratioP2;P2;SDS_P1;SDS_P2;PMS_P1;PMS_P2;Temp;Humidity;BMP_temperature;BMP_pressure;BME280_temperature;BME280_humidity;BME280_pressure;Samples;Min_cycle;Max_cycle;Signal;HPM_P1;HPM_P2
2022/04/21 00:01:07;;;;;;;4.18;1.20;;;19.70;99.90;;;;;;5038862;28;20390;-64
2022/04/21 00:03:34;;;;;;;2.08;0.90;;;19.70;99.90;;;;;;5060182;28;20091;-64
2022/04/21 00:06:01;;;;;;;0.93;0.65;;;20.00;99.90;;;;;;5059893;28;20029;-66
2022/04/21 00:08:28;;;;;;;0.68;0.57;;;20.20;99.90;;;;;;5049654;28;20027;-66
2022/04/21 00:10:55;;;;;;;1.92;1.58;;;20.50;99.90;;;;;;5046273;28;20029;-66
2022/04/21 00:13:22;;;;;;;3.92;0.70;;;20.80;99.90;;;;;;5054220;28;20390;-66
2022/04/21 00:15:49;;;;;;;1.30;0.70;;;20.90;99.90;;;;;;5057945;28;20024;-64
2022/04/21 00:18:16;;;;;;;2.88;1.00;;;21.10;99.90;;;;;;5052824;28;20028;-65
2022/04/21 00:20:42;;;;;;;1.27;0.70;;;21.10;99.90;;;;;;5047589;28;20029;-66
2022/04/21 00:23:28;;;;;;;1.25;0.90;;;21.30;99.90;;;;;;5048317;28;20491;-64
2022/04/21 00:26:00;;;;;;;2.42;0.60;;;21.40;99.90;;;;;;5050328;28;20471;-64
2022/04/21 00:28:32;;;;;;;1.45;0.60;;;21.40;99.90;;;;;;5052053;28;20067;-63
2022/04/21 00:30:59;;;;;;;0.90;0.50;;;21.60;99.90;;;;;;5051300;28;20032;-66
2022/04/21 00:33:26;;;;;;;1.23;0.60;;;21.90;99.90;;;;;;5042874;28;20025;-67
2022/04/21 00:35:53;;;;;;;3.78;0.70;;;22.10;99.90;;;;;;5047290;28;20025;-69
2022/04/21 00:38:21;;;;;;;0.98;0.60;;;22.30;98.80;;;;;;5065886;28;20049;-66
2022/04/21 00:40:49;;;;;;;1.75;0.50;;;22.50;98.50;;;;;;5051849;28;20037;-68
2022/04/21 00:43:16;;;;;;;1.33;0.40;;;22.30;99.00;;;;;;5053999;28;20013;-69
2022/04/21 00:45:43;;;;;;;1.58;0.63;;;22.40;99.50;;;;;;5048755;28;20029;-67
2022/04/21 00:48:12;;;;;;;2.15;0.50;;;22.60;98.70;;;;;;5051878;28;20298;-67
2022/04/21 00:50:39;;;;;;;0.93;0.50;;;22.50;98.50;;;;;;5050310;28;20403;-68
2022/04/21 00:53:08;;;;;;;1.65;0.80;;;22.80;98.80;;;;;;5054173;28;20028;-64
2022/04/21 00:55:38;;;;;;;1.48;0.60;;;23.00;98.70;;;;;;5049796;28;20110;-67
2022/04/21 00:58:07;;;;;;;4.20;0.98;;;23.30;97.80;;;;;;5052329;28;20021;-64
2022/04/21 01:00:34;;;;;;;2.92;1.90;;;23.50;97.20;;;;;;5054277;28;20024;-64
2022/04/21 01:03:04;;;;;;;2.95;0.50;;;23.70;97.30;;;;;;5049548;28;20474;-64
2022/04/21 01:05:35;;;;;;;1.60;0.82;;;24.00;96.00;;;;;;5052255;28;20499;-64
2022/04/21 01:08:06;;;;;;;0.65;0.50;;;24.00;97.10;;;;;;5052154;28;20029;-69
2022/04/21 01:10:38;;;;;;;1.90;0.85;;;24.00;96.60;;;;;;5053882;28;20025;-64
2022/04/21 01:13:07;;;;;;;3.30;2.37;;;24.00;96.00;;;;;;5049739;28;20048;-65
2022/04/21 01:15:35;;;;;;;1.65;1.02;;;24.20;96.30;;;;;;5052199;28;20373;-67
2022/04/21 01:18:02;;;;;;;1.13;0.70;;;24.40;95.50;;;;;;5049688;28;20309;-67
2022/04/21 01:20:29;;;;;;;1.27;0.63;;;24.40;95.30;;;;;;5054465;28;20024;-67
2022/04/21 01:22:56;;;;;;;2.05;1.45;;;24.30;94.70;;;;;;5052079;28;20132;-67
2022/04/21 01:25:23;;;;;;;1.48;0.70;;;24.30;95.60;;;;;;5051698;28;20062;-66
2022/04/21 01:27:58;;;;;;;2.28;0.63;;;24.40;95.40;;;;;;5053337;28;20298;-65
2022/04/21 01:30:25;;;;;;;1.42;0.80;;;24.60;95.40;;;;;;5059176;28;20094;-67
2022/04/21 01:32:52;;;;;;;3.70;0.60;;;24.80;95.30;;;;;;5051477;28;20617;-66
2022/04/21 01:35:22;;;;;;;1.98;0.75;;;24.90;94.70;;;;;;5051098;28;20028;-69
2022/04/21 01:43:19;;;;;;;1.48;0.77;;;26.20;94.20;;;;;;5047054;28;20021;-68
2022/04/21 01:45:46;;;;;;;1.67;0.60;;;26.20;93.40;;;;;;5047852;28;20021;-68
2022/04/21 01:48:13;;;;;;;2.10;0.80;;;26.40;93.00;;;;;;5048707;28;20032;-68
2022/04/21 01:50:40;;;;;;;1.00;0.60;;;26.60;93.20;;;;;;5043327;28;20041;-68
2022/04/21 01:53:07;;;;;;;0.80;0.70;;;26.90;92.30;;;;;;5042158;28;20036;-69
2022/04/21 01:55:34;;;;;;;1.42;0.60;;;26.30;92.00;;;;;;5045115;28;20028;-68
2022/04/21 01:58:01;;;;;;;2.75;0.90;;;25.50;93.10;;;;;;5045109;28;20436;-67
2022/04/21 02:00:29;;;;;;;0.50;0.50;;;25.20;94.20;;;;;;5045124;28;20399;-67
2022/04/21 02:02:56;;;;;;;1.40;0.80;;;25.60;93.50;;;;;;5044219;28;20565;-71
2022/04/21 02:05:23;;;;;;;2.30;0.80;;;26.00;93.70;;;;;;5044733;28;20032;-69
2022/04/21 02:07:50;;;;;;;2.70;0.90;;;26.20;93.20;;;;;;5043882;28;20053;-68
2022/04/21 02:10:19;;;;;;;1.60;0.88;;;25.80;92.60;;;;;;5028380;28;20071;-71
2022/04/21 02:12:46;;;;;;;2.15;1.02;;;25.20;93.30;;;;;;5029000;28;20588;-68
2022/04/21 02:15:14;;;;;;;1.58;0.77;;;25.20;94.40;;;;;;5046080;28;20048;-65
2022/04/21 02:17:41;;;;;;;3.25;1.23;;;25.40;94.60;;;;;;5043148;28;20025;-66
2022/04/21 02:20:09;;;;;;;3.30;1.20;;;25.00;95.60;;;;;;5043619;28;20573;-68
2022/04/21 02:22:37;;;;;;;5.20;1.27;;;25.00;95.60;;;;;;5045204;28;20071;-65
2022/04/21 02:25:08;;;;;;;1.13;0.82;;;25.00;95.30;;;;;;5044999;28;20418;-66
2022/04/21 02:27:37;;;;;;;2.20;0.95;;;25.20;96.10;;;;;;5045359;28;20110;-72
2022/04/21 02:30:05;;;;;;;3.03;1.17;;;25.70;94.90;;;;;;5044463;28;20555;-72
2022/04/21 02:32:32;;;;;;;5.90;1.35;;;25.80;95.20;;;;;;5045279;28;20214;-68
2022/04/21 02:34:59;;;;;;;1.85;0.98;;;26.00;94.40;;;;;;5044763;28;20522;-72
2022/04/21 02:37:26;;;;;;;3.08;1.17;;;26.30;93.90;;;;;;5044210;28;20049;-69
2022/04/21 02:39:53;;;;;;;2.92;1.25;;;26.10;93.90;;;;;;5045132;28;20025;-68
2022/04/21 02:42:21;;;;;;;3.35;1.33;;;26.10;95.30;;;;;;5045023;28;20024;-73
2022/04/21 02:44:49;;;;;;;4.50;1.40;;;25.60;96.40;;;;;;5044894;28;20020;-73
2022/04/21 02:47:17;;;;;;;8.65;1.58;;;24.40;98.20;;;;;;5045273;28;20424;-73
2022/04/21 02:49:46;;;;;;;4.10;1.60;;;24.30;99.00;;;;;;5044800;28;20158;-69
2022/04/21 02:52:14;;;;;;;6.53;1.65;;;24.30;98.90;;;;;;5044313;28;20029;-67
2022/04/21 02:57:30;;;;;;;4.55;1.40;;;24.60;99.60;;;;;;5044678;28;20086;-65
2022/04/21 02:59:59;;;;;;;8.48;1.58;;;24.60;99.70;;;;;;5039755;28;20037;-66
2022/04/21 03:02:27;;;;;;;3.25;1.27;;;24.40;99.00;;;;;;5042835;28;20074;-65
2022/04/21 03:04:54;;;;;;;4.25;1.90;;;24.30;99.90;;;;;;5044036;28;20419;-73
2022/04/21 03:07:23;;;;;;;6.60;2.35;;;24.30;99.60;;;;;;5042494;28;20029;-65
2022/04/21 03:09:53;;;;;;;4.05;1.65;;;23.90;99.80;;;;;;5043642;28;20047;-67
2022/04/21 03:12:23;;;;;;;3.42;1.30;;;24.00;99.90;;;;;;5044249;28;20021;-65
2022/04/21 03:14:50;;;;;;;4.88;1.70;;;24.30;99.50;;;;;;5042570;28;20037;-68
2022/04/21 03:17:17;;;;;;;4.82;2.10;;;24.40;99.10;;;;;;5038891;28;20028;-73
2022/04/21 03:19:44;;;;;;;6.13;2.03;;;24.10;99.60;;;;;;5039934;28;20286;-73
2022/04/21 03:25:04;;;;;;;5.25;1.65;;;23.30;99.90;;;;;;5040135;28;20140;-69
2022/04/21 03:27:32;;;;;;;6.95;1.73;;;23.20;99.90;;;;;;5039884;28;20462;-67
2022/04/21 03:30:05;;;;;;;3.67;1.63;;;23.10;99.90;;;;;;5039755;28;20175;-66
2022/04/21 03:32:32;;;;;;;5.97;1.70;;;22.40;99.90;;;;;;5023190;28;20396;-67
2022/04/21 03:35:00;;;;;;;8.60;1.63;;;22.00;99.90;;;;;;4343107;28;10000322;-65
2022/04/21 03:37:27;;;;;;;3.47;1.60;;;21.80;99.90;;;;;;5035683;28;20803;-66
2022/04/21 03:39:54;;;;;;;6.00;1.60;;;21.50;99.90;;;;;;5037319;28;20391;-72
2022/04/21 03:42:24;;;;;;;6.63;1.70;;;21.10;99.90;;;;;;5036482;28;20098;-71
2022/04/21 03:44:51;;;;;;;7.82;1.73;;;20.80;99.90;;;;;;5036952;28;20029;-67
2022/04/21 03:47:19;;;;;;;5.00;1.98;;;20.40;99.90;;;;;;5035558;28;20017;-71
2022/04/21 03:49:47;;;;;;;5.93;1.88;;;20.30;99.90;;;;;;5036954;28;20346;-70
2022/04/21 03:52:14;;;;;;;5.72;2.22;;;20.20;99.90;;;;;;5035152;28;20020;-69
2022/04/21 03:54:42;;;;;;;6.55;2.10;;;20.20;99.90;;;;;;5036347;28;20423;-68
2022/04/21 03:57:09;;;;;;;8.27;2.40;;;20.10;99.90;;;;;;5036823;28;20017;-68
2022/04/21 03:59:36;;;;;;;5.45;2.03;;;20.20;99.90;;;;;;5036537;28;20499;-67
2022/04/21 04:02:04;;;;;;;4.20;1.90;;;20.10;99.90;;;;;;5035865;28;20029;-67
2022/04/21 04:04:32;;;;;;;6.40;2.05;;;20.10;99.90;;;;;;5018655;28;20021;-66
2022/04/21 04:12:35;;;;;;;5.78;1.90;;;20.20;99.90;;;;;;5036174;28;20114;-65
2022/04/21 04:15:04;;;;;;;5.10;1.85;;;20.40;99.90;;;;;;5038454;28;20029;-67
2022/04/21 04:17:31;;;;;;;5.60;2.25;;;20.40;99.90;;;;;;5037758;28;20399;-66
2022/04/21 04:19:59;;;;;;;5.90;1.98;;;20.30;99.90;;;;;;5040297;28;20567;-66
2022/04/21 04:22:26;;;;;;;4.88;2.08;;;20.00;99.90;;;;;;5038904;28;20108;-68
2022/04/21 04:24:56;;;;;;;3.95;1.77;;;20.10;99.90;;;;;;5040376;28;20478;-65
2022/04/21 04:27:24;;;;;;;6.10;2.03;;;20.20;99.90;;;;;;5040313;28;20028;-66
2022/04/21 04:29:51;;;;;;;9.38;1.92;;;20.20;99.90;;;;;;5039993;28;20048;-68
2022/04/21 04:32:18;;;;;;;9.45;2.10;;;20.10;99.90;;;;;;5040065;28;20113;-69
2022/04/21 04:34:45;;;;;;;5.45;2.08;;;20.10;99.90;;;;;;5039935;28;20082;-65
2022/04/21 04:37:12;;;;;;;9.05;1.98;;;20.20;99.90;;;;;;5040111;28;20049;-68
2022/04/21 04:39:39;;;;;;;4.57;1.80;;;20.10;99.90;;;;;;5040406;28;20029;-68
2022/04/21 04:42:20;;;;;;;4.53;1.55;;;20.00;99.90;;;;;;5040809;28;20070;-68
2022/04/21 04:47:38;;;;;;;6.63;1.73;;;19.80;99.90;;;;;;5038641;28;20137;-68
2022/04/21 04:50:05;;;;;;;4.20;2.25;;;19.80;99.90;;;;;;5039382;28;20028;-67
2022/04/21 04:52:33;;;;;;;5.93;2.03;;;19.70;99.90;;;;;;5039111;28;20480;-70
2022/04/21 04:54:59;;;;;;;6.03;3.20;;;19.50;99.90;;;;;;5040469;28;20016;-72
2022/04/21 04:57:26;;;;;;;6.95;3.38;;;19.50;99.90;;;;;;5040783;28;20029;-65
2022/04/21 04:59:53;;;;;;;5.03;1.75;;;19.60;99.90;;;;;;5040097;28;20083;-65
2022/04/21 05:02:21;;;;;;;7.13;2.28;;;19.50;99.90;;;;;;5038963;28;20032;-66
2022/04/21 05:04:48;;;;;;;7.55;2.20;;;19.40;99.90;;;;;;5039273;28;20044;-68
2022/04/21 05:07:17;;;;;;;4.75;1.67;;;19.40;99.90;;;;;;5039460;28;20400;-69
2022/04/21 05:09:44;;;;;;;7.45;2.17;;;19.50;99.90;;;;;;5040490;28;20028;-68
2022/04/21 05:12:11;;;;;;;5.20;1.80;;;19.50;99.90;;;;;;5039857;28;20060;-69
2022/04/21 05:14:37;;;;;;;4.97;2.03;;;19.60;99.90;;;;;;5039848;28;20014;-69
2022/04/21 05:17:05;;;;;;;6.15;1.95;;;19.60;99.90;;;;;;5038845;28;20037;-69
2022/04/21 05:19:32;;;;;;;7.45;1.85;;;19.50;99.90;;;;;;5039349;28;20079;-69
2022/04/21 05:22:04;;;;;;;6.72;1.83;;;19.40;99.90;;;;;;5042743;28;20112;-69
2022/04/21 05:24:32;;;;;;;4.35;1.90;;;19.50;99.90;;;;;;5043993;28;20021;-68
2022/04/21 05:27:00;;;;;;;5.88;1.80;;;19.70;99.90;;;;;;5043563;28;20036;-69
2022/04/21 05:32:16;;;;;;;3.25;1.58;;;19.70;99.90;;;;;;5043814;28;20074;-68
2022/04/21 05:34:43;;;;;;;4.82;1.60;;;19.70;99.90;;;;;;5044451;28;20052;-68
2022/04/21 05:37:10;;;;;;;7.20;1.65;;;19.70;99.90;;;;;;5042685;28;20493;-69
2022/04/21 05:39:37;;;;;;;4.45;1.92;;;19.60;99.90;;;;;;5044842;28;20488;-69
2022/04/21 05:42:07;;;;;;;5.78;1.70;;;19.60;99.90;;;;;;5044273;28;20032;-68
2022/04/21 05:44:35;;;;;;;5.57;2.10;;;19.40;99.90;;;;;;5044948;28;20422;-68
2022/04/21 05:47:02;;;;;;;6.05;2.20;;;19.30;99.90;;;;;;5044449;28;20021;-68
2022/04/21 05:49:29;;;;;;;3.42;1.60;;;19.30;99.90;;;;;;5044430;28;20457;-68
2022/04/21 05:51:58;;;;;;;2.55;1.83;;;19.40;99.90;;;;;;5043123;28;20029;-66
2022/04/21 05:54:26;;;;;;;5.03;1.85;;;19.30;99.90;;;;;;5041939;28;20033;-69
2022/04/21 05:56:53;;;;;;;5.57;1.85;;;19.30;99.90;;;;;;5042787;28;20033;-68
2022/04/21 05:59:20;;;;;;;4.15;2.00;;;19.20;99.90;;;;;;5041042;28;20025;-68
2022/04/21 06:01:47;;;;;;;4.85;1.25;;;19.10;99.90;;;;;;5042320;28;20021;-68
2022/04/21 06:04:13;;;;;;;8.10;4.22;;;19.10;99.90;;;;;;5038695;28;20025;-68
2022/04/21 06:06:40;;;;;;;6.05;2.05;;;19.10;99.90;;;;;;5041837;28;20075;-68
2022/04/21 06:09:07;;;;;;;5.45;2.22;;;19.20;99.90;;;;;;5042978;28;20029;-67
2022/04/21 06:11:35;;;;;;;3.97;1.98;;;19.30;99.90;;;;;;5042294;28;20475;-67
2022/04/21 06:14:02;;;;;;;5.30;2.00;;;19.30;99.90;;;;;;5041890;28;20132;-68
2022/04/21 06:16:28;;;;;;;10.05;2.78;;;19.40;99.90;;;;;;5043319;28;20163;-67
2022/04/21 06:18:55;;;;;;;3.80;2.25;;;19.40;99.90;;;;;;5040740;28;20071;-68
2022/04/21 06:21:22;;;;;;;7.70;2.15;;;19.40;99.90;;;;;;5041585;28;20029;-67
2022/04/21 06:23:49;;;;;;;6.47;1.98;;;19.50;99.90;;;;;;5041445;28;20131;-68
2022/04/21 06:26:17;;;;;;;3.67;1.92;;;19.50;99.90;;;;;;5041975;28;20021;-67
2022/04/21 06:28:44;;;;;;;4.20;1.77;;;19.40;99.90;;;;;;5041663;28;20104;-68
2022/04/21 06:31:11;;;;;;;4.47;1.85;;;19.50;99.90;;;;;;5041811;28;21311;-67
2022/04/21 06:33:38;;;;;;;5.03;1.88;;;19.50;99.90;;;;;;5041380;28;20220;-67
2022/04/21 06:36:07;;;;;;;4.45;2.15;;;19.40;99.90;;;;;;5039918;28;20060;-67
2022/04/21 06:38:34;;;;;;;8.20;1.95;;;19.40;99.90;;;;;;5041928;28;20375;-68
2022/04/21 06:41:02;;;;;;;7.45;3.20;;;19.40;99.90;;;;;;5042223;28;20076;-68
2022/04/21 06:49:08;;;;;;;6.90;2.75;;;19.40;99.90;;;;;;4979558;28;20046;-68
2022/04/21 06:51:35;;;;;;;4.80;2.35;;;19.40;99.90;;;;;;4977942;28;20485;-67
2022/04/21 06:54:02;;;;;;;4.10;1.75;;;19.40;99.90;;;;;;4978097;28;20094;-68
2022/04/21 06:56:29;;;;;;;4.43;1.50;;;19.40;99.90;;;;;;4977772;28;20129;-67
2022/04/21 06:58:56;;;;;;;5.30;1.60;;;19.40;99.90;;;;;;4976535;28;20029;-68
2022/04/21 07:01:23;;;;;;;4.63;1.52;;;19.50;99.90;;;;;;4977420;28;20451;-68
2022/04/21 07:03:50;;;;;;;6.43;2.25;;;19.40;99.90;;;;;;4976469;28;20030;-67
2022/04/21 07:06:17;;;;;;;3.55;1.65;;;19.50;99.90;;;;;;4976241;28;20184;-68
2022/04/21 07:08:44;;;;;;;4.82;2.40;;;19.40;99.90;;;;;;4976665;28;20035;-68
2022/04/21 07:11:12;;;;;;;7.75;1.90;;;19.40;99.90;;;;;;4976108;28;20564;-67
2022/04/21 07:13:39;;;;;;;6.97;4.30;;;19.40;99.90;;;;;;4975671;28;20176;-68
2022/04/21 07:16:06;;;;;;;6.10;2.75;;;19.40;99.90;;;;;;4979828;28;20092;-68
2022/04/21 07:18:33;;;;;;;4.88;2.10;;;19.40;99.90;;;;;;4976901;28;20132;-68
2022/04/21 07:21:01;;;;;;;3.40;1.77;;;19.40;99.90;;;;;;4972060;28;20042;-68
2022/04/21 07:23:29;;;;;;;2.78;1.30;;;19.40;99.90;;;;;;4973261;28;20041;-68
2022/04/21 07:25:55;;;;;;;4.65;1.63;;;19.40;99.90;;;;;;5006745;28;20025;-67
2022/04/21 07:28:22;;;;;;;4.32;2.00;;;19.40;99.90;;;;;;5040074;28;20136;-67
2022/04/21 07:30:49;;;;;;;5.43;3.60;;;19.30;99.90;;;;;;5039681;28;20340;-66
2022/04/21 07:33:18;;;;;;;3.78;1.50;;;19.20;99.90;;;;;;5039806;28;20033;-68
2022/04/21 07:35:45;;;;;;;5.13;1.67;;;19.20;99.90;;;;;;5038163;28;20085;-67
2022/04/21 07:38:13;;;;;;;3.90;1.27;;;19.10;99.90;;;;;;5037906;28;20069;-66
2022/04/21 07:40:41;;;;;;;6.80;1.85;;;19.10;99.90;;;;;;5038367;28;20684;-68
2022/04/21 07:43:08;;;;;;;2.33;1.35;;;19.10;99.90;;;;;;5037440;28;20082;-67
2022/04/21 07:45:38;;;;;;;4.25;1.27;;;19.00;99.90;;;;;;5037540;28;20032;-67
2022/04/21 07:48:05;;;;;;;4.53;1.58;;;19.00;99.90;;;;;;5038905;28;20029;-67
2022/04/21 07:50:32;;;;;;;5.05;1.92;;;19.10;99.90;;;;;;5038527;28;20024;-69
2022/04/21 07:53:15;;;;;;;8.40;1.45;;;19.00;99.90;;;;;;5037910;28;20051;-68
2022/04/21 07:55:44;;;;;;;6.70;1.65;;;19.00;99.90;;;;;;5038782;28;20024;-67
2022/04/21 07:58:11;;;;;;;2.90;1.30;;;19.00;99.90;;;;;;5038344;28;20025;-68
2022/04/21 08:00:40;;;;;;;3.55;1.20;;;18.90;99.90;;;;;;5039587;28;20119;-69
2022/04/21 08:03:08;;;;;;;2.65;1.27;;;18.90;99.90;;;;;;5038101;28;20089;-68
2022/04/21 08:05:36;;;;;;;2.10;1.17;;;18.90;99.90;;;;;;5037587;28;20492;-68
2022/04/21 08:08:03;;;;;;;5.53;1.95;;;19.00;99.90;;;;;;5037446;28;20186;-68
2022/04/21 08:10:31;;;;;;;5.30;1.33;;;19.00;99.90;;;;;;5038397;28;20423;-67
2022/04/21 08:12:59;;;;;;;3.15;1.25;;;19.00;99.90;;;;;;5020696;28;20407;-67
2022/04/21 08:15:27;;;;;;;5.72;3.70;;;19.00;99.90;;;;;;5036498;28;20025;-67
2022/04/21 08:17:56;;;;;;;8.38;5.97;;;19.00;99.90;;;;;;5037385;28;20055;-67
2022/04/21 08:20:26;;;;;;;3.13;1.30;;;19.00;99.90;;;;;;5037236;28;20434;-68
2022/04/21 08:22:54;;;;;;;2.75;1.40;;;19.10;99.90;;;;;;5038577;28;20033;-71
2022/04/21 08:33:37;;;;;;;4.70;1.40;;;19.10;99.90;;;;;;5038788;28;20195;-69
2022/04/21 08:36:05;;;;;;;4.90;1.42;;;19.00;99.90;;;;;;5038387;28;20033;-69
2022/04/21 08:38:33;;;;;;;5.15;2.08;;;18.90;99.90;;;;;;5038945;28;20565;-69
2022/04/21 08:41:10;;;;;;;5.68;1.95;;;19.00;99.90;;;;;;5038515;28;20035;-69
2022/04/21 08:43:37;;;;;;;5.95;1.83;;;19.00;99.90;;;;;;5038810;28;20025;-66
2022/04/21 08:46:04;;;;;;;6.05;1.90;;;18.90;99.90;;;;;;5038522;28;20033;-65
2022/04/21 08:48:34;;;;;;;6.32;1.85;;;19.00;99.90;;;;;;5037137;28;20029;-67
2022/04/21 08:51:02;;;;;;;4.95;1.75;;;19.00;99.90;;;;;;5038368;28;20053;-70
2022/04/21 08:53:30;;;;;;;8.82;1.90;;;19.00;99.90;;;;;;5038751;28;20357;-66
2022/04/21 08:55:58;;;;;;;7.97;2.38;;;18.90;99.90;;;;;;5041099;28;20025;-68
2022/04/21 08:58:25;;;;;;;6.22;2.00;;;18.80;99.90;;;;;;5042339;28;20058;-67
2022/04/21 09:00:54;;;;;;;3.88;1.40;;;18.80;99.90;;;;;;5042309;28;20549;-69
2022/04/21 09:03:22;;;;;;;4.50;1.58;;;18.70;99.90;;;;;;5042549;28;20442;-67
2022/04/21 09:05:49;;;;;;;8.15;1.63;;;18.80;99.90;;;;;;5041942;28;20028;-69
2022/04/21 09:08:26;;;;;;;4.03;1.23;;;18.70;99.90;;;;;;5042987;28;20031;-68
2022/04/21 09:11:07;;;;;;;3.72;1.42;;;18.70;99.90;;;;;;5021568;28;20487;-69
2022/04/21 09:13:44;;;;;;;5.60;1.50;;;18.70;99.90;;;;;;5038132;28;20243;-69
2022/04/21 09:16:12;;;;;;;3.08;1.10;;;18.80;99.90;;;;;;5039504;28;20395;-69
2022/04/21 09:18:41;;;;;;;5.05;1.50;;;18.70;99.90;;;;;;5037281;28;20021;-70
2022/04/21 09:21:10;;;;;;;5.07;1.48;;;18.70;99.90;;;;;;5037045;28;20114;-68
2022/04/21 09:23:38;;;;;;;4.47;1.30;;;18.70;99.90;;;;;;5039193;28;20021;-67
2022/04/21 09:26:12;;;;;;;5.75;1.70;;;18.50;99.90;;;;;;5040628;28;20021;-69
2022/04/21 09:28:39;;;;;;;3.55;1.23;;;18.50;99.90;;;;;;5039967;28;20044;-68
2022/04/21 09:31:08;;;;;;;6.38;1.67;;;18.60;99.90;;;;;;5039326;28;20090;-68
2022/04/21 09:33:44;;;;;;;2.80;1.17;;;18.60;99.90;;;;;;5039064;28;20570;-67
2022/04/21 09:36:12;;;;;;;3.15;1.23;;;18.60;99.90;;;;;;5041599;28;20445;-68
2022/04/21 09:38:40;;;;;;;7.53;1.98;;;18.50;99.90;;;;;;5058779;28;20047;-67
2022/04/21 09:41:12;;;;;;;4.13;1.30;;;18.60;99.90;;;;;;5062010;28;20529;-69
2022/04/21 09:43:41;;;;;;;4.47;1.40;;;18.40;99.90;;;;;;5060108;28;20043;-68
2022/04/21 09:46:22;;;;;;;3.72;1.15;;;18.40;99.90;;;;;;5062071;28;20025;-68
2022/04/21 09:48:55;;;;;;;4.38;1.20;;;18.30;99.90;;;;;;5058921;28;20024;-68
2022/04/21 09:51:27;;;;;;;2.63;1.25;;;18.20;99.90;;;;;;5053086;28;20363;-69
2022/04/21 09:54:03;;;;;;;5.03;1.40;;;18.30;99.90;;;;;;5057921;28;20542;-67
2022/04/21 09:56:34;;;;;;;5.03;1.70;;;18.30;99.90;;;;;;5058988;28;20349;-68
2022/04/21 09:59:09;;;;;;;3.33;1.53;;;18.40;99.90;;;;;;5049364;28;20037;-66
2022/04/21 10:01:38;;;;;;;5.10;1.77;;;18.40;99.90;;;;;;5054893;28;21078;-66
2022/04/21 10:04:11;;;;;;;9.90;1.50;;;18.30;99.90;;;;;;5058518;28;20079;-70
2022/04/21 10:06:42;;;;;;;3.80;1.23;;;18.30;99.90;;;;;;5058223;28;20173;-68
2022/04/21 10:09:10;;;;;;;4.68;1.30;;;18.30;99.90;;;;;;5057369;28;20487;-66
2022/04/21 10:11:38;;;;;;;3.30;1.30;;;18.20;99.90;;;;;;5058901;28;20247;-65
2022/04/21 10:14:13;;;;;;;3.85;1.20;;;18.20;99.90;;;;;;5057479;28;20074;-66
2022/04/21 10:16:42;;;;;;;7.03;1.30;;;18.10;99.90;;;;;;5060602;28;20807;-68
2022/04/21 10:19:14;;;;;;;1.90;1.20;;;18.00;99.90;;;;;;5056021;28;20020;-67
2022/04/21 10:21:48;;;;;;;3.67;1.20;;;17.90;99.90;;;;;;5059068;28;20500;-67
2022/04/21 10:24:25;;;;;;;11.88;1.55;;;17.90;99.90;;;;;;5048651;28;20025;-63
2022/04/21 10:26:54;;;;;;;3.92;0.90;;;17.80;99.90;;;;;;5058218;28;20024;-66
2022/04/21 10:29:23;;;;;;;5.32;1.40;;;17.70;99.90;;;;;;5058509;28;20029;-66
2022/04/21 10:32:05;;;;;;;6.10;1.40;;;17.70;99.90;;;;;;4699953;28;10000094;-63
2022/04/21 10:34:40;;;;;;;2.58;1.23;;;17.60;99.90;;;;;;5045020;28;20112;-64
2022/04/21 10:37:32;;;;;;;5.13;1.95;;;17.50;99.90;;;;;;5105767;22;20851;-67
2022/04/21 10:40:03;;;;;;;4.57;1.90;;;17.60;99.90;;;;;;5100504;28;20026;-66
2022/04/21 10:42:50;;;;;;;2.63;1.20;;;17.50;99.90;;;;;;5101465;28;20397;-64
2022/04/21 10:45:23;;;;;;;2.83;1.27;;;17.50;99.90;;;;;;5100317;28;20448;-63
2022/04/21 10:48:38;;;;;;;3.85;1.67;;;17.50;99.90;;;;;;5099553;28;20764;-67
2022/04/21 10:51:05;;;;;;;4.53;1.50;;;17.50;99.90;;;;;;4995641;28;20484;-66
2022/04/21 11:00:09;;;;;;;1.75;1.00;;;17.40;99.90;;;;;;4985447;28;20193;-64
2022/04/21 11:02:39;;;;;;;3.95;1.30;;;17.50;99.90;;;;;;4986009;28;20030;-69
2022/04/21 11:05:42;;;;;;;6.45;1.60;;;17.50;99.90;;;;;;4988752;28;20030;-67
2022/04/21 11:08:14;;;;;;;4.47;2.38;;;17.50;99.90;;;;;;4999031;28;20045;-67
2022/04/21 11:10:43;;;;;;;6.32;1.83;;;17.50;99.90;;;;;;4991511;28;20532;-65
2022/04/21 11:13:17;;;;;;;4.65;1.30;;;17.50;99.90;;;;;;4977698;28;20668;-64
2022/04/21 11:15:49;;;;;;;3.83;1.50;;;17.70;99.90;;;;;;4995707;28;20483;-67
2022/04/21 11:18:16;;;;;;;;;;;17.80;99.90;;;;;;4990460;28;20753;-67
2022/04/21 11:20:46;;;;;;;2.45;1.27;;;17.80;99.90;;;;;;4998507;28;19971;-68
2022/04/21 11:23:45;;;;;;;5.30;1.70;;;17.80;99.90;;;;;;4987541;28;20120;-65
2022/04/21 11:26:12;;;;;;;5.75;1.60;;;17.80;99.90;;;;;;5030853;28;20524;-69
2022/04/21 11:28:46;;;;;;;5.13;1.75;;;17.90;99.90;;;;;;5101944;28;20159;-68
2022/04/21 11:31:14;;;;;;;4.28;1.30;;;17.80;99.90;;;;;;5101153;28;20522;-65
2022/04/21 11:33:46;;;;;;;5.63;1.60;;;17.80;99.90;;;;;;5100708;28;20282;-67
2022/04/21 11:36:15;;;;;;;5.82;1.58;;;17.90;99.90;;;;;;5102000;28;20028;-66
2022/04/21 11:38:47;;;;;;;8.02;1.67;;;17.90;99.90;;;;;;5099622;28;20166;-66
2022/04/21 11:41:15;;;;;;;5.68;1.52;;;17.90;99.90;;;;;;5080654;28;20367;-66
2022/04/21 11:43:50;;;;;;;3.25;1.10;;;17.80;99.90;;;;;;5099338;28;20032;-67
2022/04/21 11:46:20;;;;;;;5.13;1.48;;;17.80;99.90;;;;;;5100601;27;20122;-67
2022/04/21 11:48:55;;;;;;;3.55;1.40;;;17.80;99.90;;;;;;5101881;28;20031;-68
2022/04/21 11:51:26;;;;;;;6.25;1.98;;;17.70;99.90;;;;;;5102194;28;20100;-66
2022/04/21 11:53:55;;;;;;;4.28;1.40;;;17.80;99.90;;;;;;5103030;28;20497;-69
2022/04/21 11:56:27;;;;;;;4.75;1.33;;;17.70;99.90;;;;;;5102095;28;20016;-69
2022/04/21 11:58:54;;;;;;;3.63;1.80;;;17.80;99.90;;;;;;5103276;27;20049;-68
2022/04/21 12:06:57;;;;;;;4.78;1.30;;;17.70;99.90;;;;;;5101219;28;20107;-66
2022/04/21 12:09:28;;;;;;;7.10;1.65;;;17.80;99.90;;;;;;5102010;28;20077;-66
2022/04/21 12:11:57;;;;;;;4.13;2.33;;;17.70;99.90;;;;;;5102214;28;20104;-65
2022/04/21 12:14:25;;;;;;;7.75;2.03;;;17.70;99.90;;;;;;5102852;28;20059;-65
2022/04/21 12:17:02;;;;;;;5.07;1.90;;;17.80;99.90;;;;;;5102129;28;20026;-66
2022/04/21 12:19:39;;;;;;;8.95;1.67;;;17.70;99.90;;;;;;5101696;28;20047;-68
2022/04/21 12:22:21;;;;;;;7.50;1.38;;;17.70;99.90;;;;;;5102654;28;20430;-68
2022/04/21 12:24:54;;;;;;;3.05;1.63;;;17.70;99.90;;;;;;5102643;28;20020;-68
2022/04/21 12:27:28;;;;;;;2.92;1.55;;;17.60;99.90;;;;;;5102791;28;20035;-65
2022/04/21 12:30:02;;;;;;;6.70;1.85;;;17.50;99.90;;;;;;5102937;28;20069;-66
2022/04/21 12:32:31;;;;;;;7.22;1.90;;;17.60;99.90;;;;;;5103695;28;20035;-67
2022/04/21 12:35:01;;;;;;;7.82;1.70;;;17.60;99.90;;;;;;5103726;28;20038;-69
2022/04/21 12:37:34;;;;;;;5.03;2.10;;;17.60;99.90;;;;;;5103459;28;20047;-66
2022/04/21 12:40:05;;;;;;;8.88;1.55;;;17.60;99.90;;;;;;5102563;28;20032;-66
2022/04/21 12:42:32;;;;;;;6.05;2.08;;;17.70;99.90;;;;;;5101891;28;20028;-68
2022/04/21 12:44:59;;;;;;;4.25;1.40;;;17.70;99.90;;;;;;5101479;28;20110;-68
2022/04/21 12:47:26;;;;;;;7.95;2.60;;;17.60;99.90;;;;;;5084213;28;20039;-66
2022/04/21 12:49:57;;;;;;;6.80;1.83;;;17.60;99.90;;;;;;5103232;28;20123;-68
2022/04/21 12:52:38;;;;;;;5.63;1.80;;;17.50;99.90;;;;;;5100885;28;20028;-65
2022/04/21 12:55:06;;;;;;;6.43;1.60;;;17.40;99.90;;;;;;5101421;28;20098;-66
2022/04/21 12:57:35;;;;;;;4.50;1.67;;;17.30;99.90;;;;;;5103248;28;20061;-67
2022/04/21 13:00:03;;;;;;;5.53;1.90;;;17.20;99.90;;;;;;5104689;28;20036;-64
2022/04/21 13:02:30;;;;;;;7.88;2.05;;;17.10;99.90;;;;;;5102134;28;20115;-64
2022/04/21 13:04:57;;;;;;;4.38;1.83;;;17.00;99.90;;;;;;5102084;28;20020;-62
2022/04/21 13:07:25;;;;;;;6.38;1.70;;;16.90;99.90;;;;;;5101503;28;20015;-62
2022/04/21 13:09:52;;;;;;;4.00;1.88;;;16.90;99.90;;;;;;5101935;28;20034;-64
2022/04/21 13:12:19;;;;;;;6.70;2.65;;;16.80;99.90;;;;;;5101060;28;20142;-65
2022/04/21 13:14:46;;;;;;;7.85;2.13;;;16.70;99.90;;;;;;5101908;28;20361;-61
2022/04/21 13:17:14;;;;;;;8.25;2.45;;;16.70;99.90;;;;;;5098815;28;20555;-63
2022/04/21 13:19:41;;;;;;;9.48;2.40;;;16.70;99.90;;;;;;5095574;28;20470;-66
2022/04/21 13:22:08;;;;;;;6.38;2.28;;;16.70;99.90;;;;;;5081080;28;20024;-65
2022/04/21 13:24:35;;;;;;;7.82;2.15;;;16.60;99.90;;;;;;5093838;28;20201;-66
2022/04/21 13:27:02;;;;;;;9.48;2.08;;;16.50;99.90;;;;;;5099201;28;20455;-65
2022/04/21 13:29:29;;;;;;;5.35;1.80;;;16.60;99.90;;;;;;5084932;28;20028;-68
2022/04/21 13:34:42;;;;;;;8.70;2.55;;;16.40;99.90;;;;;;5087204;28;20027;-69
2022/04/21 13:37:09;;;;;;;6.68;2.15;;;16.40;99.90;;;;;;5092870;28;20474;-64
2022/04/21 13:39:39;;;;;;;9.60;2.97;;;16.40;99.90;;;;;;5095902;28;20471;-66
2022/04/21 13:42:08;;;;;;;8.05;2.30;;;16.40;99.90;;;;;;5096247;28;20577;-64
2022/04/21 13:44:35;;;;;;;7.78;2.13;;;16.40;99.90;;;;;;5103992;28;20135;-65
2022/04/21 13:47:03;;;;;;;8.05;2.30;;;16.50;99.90;;;;;;5096267;28;20096;-64
2022/04/21 13:49:30;;;;;;;5.82;1.67;;;16.50;99.90;;;;;;5099594;28;20032;-65